createdAt,value
2019-03-16T00:01:06.954Z,94730.20
2019-03-16T00:03:34.600Z,94735.17
2019-03-16T00:06:01.991Z,94739.53
2019-03-16T00:08:29.455Z,94736.40
2019-03-16T00:10:56.965Z,94745.93
2019-03-16T00:13:24.555Z,94739.89
2019-03-16T00:15:52.008Z,94745.97
2019-03-16T00:18:19.442Z,94748.53
2019-03-16T00:20:46.874Z,94747.68
2019-03-16T00:23:14.381Z,94747.80
2019-03-16T00:25:41.934Z,94741.24
2019-03-16T00:28:09.419Z,94738.98
2019-03-16T00:30:36.936Z,94743.14
2019-03-16T00:33:04.621Z,94747.47
2019-03-16T00:35:32.134Z,94742.05
2019-03-16T00:38:00.223Z,94729.49
2019-03-16T00:40:27.841Z,94719.22
2019-03-16T00:42:55.372Z,94723.95
2019-03-16T00:45:22.825Z,94711.71
2019-03-16T00:47:50.935Z,94713.41
2019-03-16T00:50:18.730Z,94705.63
2019-03-16T00:52:46.298Z,94699.35
2019-03-16T00:55:13.827Z,94703.87
2019-03-16T00:57:41.413Z,94694.66
2019-03-16T01:00:10.266Z,94690.17
2019-03-16T01:02:38.138Z,94698.73
2019-03-16T01:05:07.678Z,94702.81
2019-03-16T01:07:35.253Z,94708.26
2019-03-16T01:10:02.709Z,94711.70
2019-03-16T01:12:30.177Z,94712.54
2019-03-16T01:14:57.715Z,94716.75
2019-03-16T01:17:25.214Z,94713.91
2019-03-16T01:19:52.774Z,94712.47
2019-03-16T01:22:20.343Z,94713.81
2019-03-16T01:24:47.902Z,94703.50
2019-03-16T01:27:15.359Z,94713.56
2019-03-16T01:29:43.282Z,94702.75
2019-03-16T01:32:10.881Z,94695.87
2019-03-16T01:34:38.357Z,94693.22
2019-03-16T01:37:05.884Z,94702.77
2019-03-16T01:39:33.514Z,94709.88
2019-03-16T01:42:01.046Z,94710.14
2019-03-16T01:44:28.481Z,94709.81
2019-03-16T01:46:55.980Z,94717.00
2019-03-16T01:49:23.638Z,94724.55
2019-03-16T01:51:51.147Z,94729.06
2019-03-16T01:54:18.670Z,94731.75
2019-03-16T01:56:46.161Z,94740.37
2019-03-16T01:59:13.656Z,94733.59
2019-03-16T02:01:41.134Z,94738.27
2019-03-16T02:04:08.616Z,94730.30
2019-03-16T02:06:36.084Z,94737.36
2019-03-16T02:09:05.209Z,94740.30
2019-03-16T02:11:32.712Z,94740.47
2019-03-16T02:14:00.232Z,94737.69
2019-03-16T02:16:27.621Z,94727.87
2019-03-16T02:18:55.205Z,94727.75
2019-03-16T02:21:22.652Z,94732.59
2019-03-16T02:23:50.074Z,94731.36
2019-03-16T02:26:17.578Z,94730.14
2019-03-16T02:28:45.043Z,94730.11
2019-03-16T02:31:12.550Z,94729.27
2019-03-16T02:33:40.195Z,94731.17
2019-03-16T02:36:07.754Z,94727.33
2019-03-16T02:38:35.301Z,94719.44
2019-03-16T02:41:04.014Z,94723.30
2019-03-16T02:43:31.544Z,94718.59
2019-03-16T02:45:58.998Z,94712.04
2019-03-16T02:48:26.446Z,94705.22
2019-03-16T02:50:54.011Z,94716.14
2019-03-16T02:53:21.589Z,94712.99
2019-03-16T02:55:49.133Z,94709.05
2019-03-16T02:58:17.066Z,94707.48
2019-03-16T03:00:44.587Z,94708.85
2019-03-16T03:03:28.059Z,94709.16
2019-03-16T03:05:41.621Z,94710.84
2019-03-16T03:08:09.180Z,94717.75
2019-03-16T03:10:36.669Z,94722.42
2019-03-16T03:13:04.305Z,94725.64
2019-03-16T03:15:31.893Z,94727.64
2019-03-16T03:17:59.389Z,94713.04
2019-03-16T03:20:26.834Z,94714.25
2019-03-16T03:22:54.239Z,94711.48
2019-03-16T03:25:21.712Z,94722.64
2019-03-16T03:27:49.179Z,94721.46
2019-03-16T03:30:16.816Z,94713.14
2019-03-16T03:32:44.411Z,94713.03
2019-03-16T03:35:12.046Z,94709.28
2019-03-16T03:37:39.586Z,94711.15
2019-03-16T03:40:07.257Z,94709.36
2019-03-16T03:42:35.007Z,94723.77
2019-03-16T03:45:02.801Z,94726.27
2019-03-16T03:47:30.228Z,94715.34
2019-03-16T03:49:57.729Z,94715.68
2019-03-16T03:52:26.704Z,94708.40
2019-03-16T03:54:54.487Z,94721.24
2019-03-16T03:57:22.125Z,94720.55
2019-03-16T03:59:49.579Z,94720.36
2019-03-16T04:02:17.145Z,94712.23
2019-03-16T04:04:44.790Z,94706.59
2019-03-16T04:07:12.295Z,94714.22
2019-03-16T04:09:40.060Z,94713.22
2019-03-16T04:12:07.774Z,94715.41
2019-03-16T04:14:35.284Z,94703.64
2019-03-16T04:17:02.873Z,94700.47
2019-03-16T04:19:30.358Z,94699.54
2019-03-16T04:21:58.368Z,94685.39
2019-03-16T04:24:26.588Z,94676.69
2019-03-16T04:26:54.547Z,94677.22
2019-03-16T04:29:23.325Z,94672.00
2019-03-16T04:31:52.282Z,94664.23
2019-03-16T04:34:29.276Z,94667.34
2019-03-16T04:36:49.633Z,94660.59
2019-03-16T04:39:17.698Z,94660.90
2019-03-16T04:41:45.230Z,94655.18
2019-03-16T04:44:13.674Z,94664.84
2019-03-16T04:46:42.804Z,94650.51
2019-03-16T04:49:10.345Z,94654.61
2019-03-16T04:51:37.891Z,94639.85
2019-03-16T04:54:05.866Z,94659.80
2019-03-16T04:56:33.505Z,94634.58
2019-03-16T04:59:00.933Z,94661.98
2019-03-16T05:01:28.970Z,94679.73
2019-03-16T05:03:57.064Z,94691.37
2019-03-16T05:06:24.476Z,94703.00
2019-03-16T05:08:51.942Z,94720.52
2019-03-16T05:11:19.421Z,94725.70
2019-03-16T05:13:46.908Z,94720.48
2019-03-16T05:16:14.405Z,94733.07
2019-03-16T05:18:42.054Z,94719.23
2019-03-16T05:21:09.545Z,94719.38
2019-03-16T05:23:37.868Z,94715.96
2019-03-16T05:26:05.944Z,94718.94
2019-03-16T05:28:33.372Z,94715.06
2019-03-16T05:31:00.861Z,94728.64
2019-03-16T05:33:28.886Z,94745.28
2019-03-16T05:35:56.592Z,94740.70
2019-03-16T05:38:24.104Z,94737.39
2019-03-16T05:40:51.737Z,94725.26
2019-03-16T05:43:19.349Z,94728.28
2019-03-16T05:45:47.011Z,94725.14
2019-03-16T05:48:14.526Z,94726.52
2019-03-16T05:50:42.145Z,94733.20
2019-03-16T05:53:09.684Z,94738.23
2019-03-16T05:55:37.212Z,94737.08
2019-03-16T05:58:04.814Z,94740.42
2019-03-16T06:00:32.356Z,94748.74
2019-03-16T06:02:59.785Z,94748.93
2019-03-16T06:05:28.495Z,94761.19
2019-03-16T06:07:55.984Z,94759.28
2019-03-16T06:10:23.535Z,94774.70
2019-03-16T06:12:50.936Z,94784.53
2019-03-16T06:15:18.480Z,94788.73
2019-03-16T06:17:46.152Z,94793.58
2019-03-16T06:20:13.929Z,94793.48
2019-03-16T06:22:43.364Z,94805.80
2019-03-16T06:25:11.493Z,94789.86
2019-03-16T06:27:41.037Z,94803.20
2019-03-16T06:30:08.884Z,94800.66
2019-03-16T06:32:36.394Z,94791.60
2019-03-16T06:35:04.221Z,94793.06
2019-03-16T06:37:31.812Z,94790.84
2019-03-16T06:39:59.428Z,94793.56
2019-03-16T06:42:27.104Z,94802.57
2019-03-16T06:44:54.663Z,94812.94
2019-03-16T06:47:23.278Z,94805.48
2019-03-16T06:49:50.930Z,94816.10
2019-03-16T06:52:18.514Z,94806.64
2019-03-16T06:54:47.496Z,94804.49
2019-03-16T06:57:15.284Z,94796.98
2019-03-16T06:59:43.230Z,94791.33
2019-03-16T07:02:10.749Z,94776.37
2019-03-16T07:04:39.921Z,94779.52
2019-03-16T07:07:08.073Z,94773.89
2019-03-16T07:09:35.738Z,94781.17
2019-03-16T07:12:03.316Z,94792.41
2019-03-16T07:14:30.981Z,94791.52
2019-03-16T07:17:02.357Z,94794.76
2019-03-16T07:19:29.359Z,94795.37
2019-03-16T07:21:56.993Z,94808.05
2019-03-16T07:24:24.691Z,94788.70
2019-03-16T07:26:52.293Z,94805.84
2019-03-16T07:29:19.919Z,94794.77
2019-03-16T07:31:47.744Z,94796.33
2019-03-16T07:34:15.387Z,94796.17
2019-03-16T07:36:43.222Z,94801.27
2019-03-16T07:39:12.726Z,94809.98
2019-03-16T07:41:40.356Z,94791.88
2019-03-16T07:44:08.083Z,94794.14
2019-03-16T07:46:35.950Z,94782.38
2019-03-16T07:49:06.060Z,94783.23
2019-03-16T07:51:34.019Z,94788.89
2019-03-16T07:54:05.093Z,94785.42
2019-03-16T07:56:32.678Z,94802.20
2019-03-16T07:59:00.234Z,94806.56
2019-03-16T08:01:27.713Z,94784.80
2019-03-16T08:03:55.262Z,94785.59
2019-03-16T08:06:22.687Z,94786.86
2019-03-16T08:08:50.206Z,94796.19
2019-03-16T08:11:18.404Z,94781.74
2019-03-16T08:13:45.889Z,94784.91
2019-03-16T08:16:13.589Z,94787.81
2019-03-16T08:18:42.234Z,94771.98
2019-03-16T08:21:12.577Z,94779.96
2019-03-16T08:23:40.500Z,94784.28
2019-03-16T08:26:08.364Z,94775.38
2019-03-16T08:28:36.491Z,94779.89
2019-03-16T08:31:05.273Z,94780.42
2019-03-16T08:33:32.712Z,94772.16
2019-03-16T08:36:00.780Z,94767.73
2019-03-16T08:38:30.382Z,94761.14
2019-03-16T08:40:58.303Z,94771.44
2019-03-16T08:43:27.245Z,94753.84
2019-03-16T08:45:54.704Z,94758.58
2019-03-16T08:48:23.397Z,94755.55
2019-03-16T08:50:51.048Z,94755.22
2019-03-16T08:53:18.630Z,94764.06
2019-03-16T08:55:49.160Z,94751.13
2019-03-16T08:58:16.745Z,94753.04
2019-03-16T09:00:44.250Z,94757.53
2019-03-16T09:03:11.892Z,94748.11
2019-03-16T09:05:39.376Z,94748.02
2019-03-16T09:08:06.924Z,94751.55
2019-03-16T09:10:34.405Z,94741.20
2019-03-16T09:13:03.233Z,94739.77
2019-03-16T09:15:31.230Z,94748.27
2019-03-16T09:17:58.707Z,94747.50
2019-03-16T09:20:26.096Z,94733.79
2019-03-16T09:22:53.719Z,94714.79
2019-03-16T09:25:21.218Z,94716.91
2019-03-16T09:27:50.006Z,94600.16
2019-03-16T09:30:17.507Z,94733.05
2019-03-16T09:32:49.662Z,94724.09
2019-03-16T09:35:17.125Z,94717.70
2019-03-16T09:37:44.656Z,94722.63
2019-03-16T09:40:12.588Z,94720.33
2019-03-16T09:42:40.188Z,94696.38
2019-03-16T09:45:08.720Z,94709.86
2019-03-16T09:47:38.782Z,94714.63
2019-03-16T09:50:07.654Z,94715.70
2019-03-16T09:52:36.351Z,94707.62
2019-03-16T09:55:04.200Z,94712.41
2019-03-16T09:57:33.128Z,94709.20
2019-03-16T10:00:02.623Z,94717.76
2019-03-16T10:02:30.168Z,94706.26
2019-03-16T10:04:58.780Z,94705.46
2019-03-16T10:07:26.683Z,94698.92
2019-03-16T10:09:54.226Z,94703.90
2019-03-16T10:12:21.945Z,94693.91
2019-03-16T10:14:49.538Z,94699.84
2019-03-16T10:17:17.204Z,94696.55
2019-03-16T10:19:44.835Z,94683.58
2019-03-16T10:22:14.080Z,94676.22
2019-03-16T10:24:41.677Z,94668.30
2019-03-16T10:27:09.216Z,94664.53
2019-03-16T10:29:36.733Z,94649.95
2019-03-16T10:32:05.147Z,94647.05
2019-03-16T10:34:32.652Z,94652.56
2019-03-16T10:37:00.372Z,94656.52
2019-03-16T10:39:27.976Z,94658.99
2019-03-16T10:41:55.658Z,94666.41
2019-03-16T10:44:23.162Z,94668.33
2019-03-16T10:46:51.662Z,94657.91
2019-03-16T10:49:20.679Z,94650.11
2019-03-16T10:51:48.688Z,94642.58
2019-03-16T10:54:17.055Z,94639.78
2019-03-16T10:56:44.843Z,94637.31
2019-03-16T10:59:12.443Z,94637.16
2019-03-16T11:01:40.998Z,94626.00
2019-03-16T11:04:09.796Z,94629.99
2019-03-16T11:06:38.890Z,94624.38
2019-03-16T11:09:06.788Z,94625.91
2019-03-16T11:11:34.446Z,94614.13
2019-03-16T11:14:02.056Z,94614.55
2019-03-16T11:16:29.634Z,94615.90
2019-03-16T11:18:59.258Z,94610.61
2019-03-16T11:21:28.074Z,94622.64
2019-03-16T11:23:56.052Z,94613.22
2019-03-16T11:26:23.712Z,94619.48
2019-03-16T11:29:04.504Z,94606.36
2019-03-16T11:31:25.392Z,94597.97
2019-03-16T11:33:53.050Z,94601.19
2019-03-16T11:36:20.923Z,94599.78
2019-03-16T11:38:50.680Z,94601.74
2019-03-16T11:41:18.246Z,94596.45
2019-03-16T11:43:46.168Z,94605.05
2019-03-16T11:46:15.327Z,94603.10
2019-03-16T11:48:43.532Z,94602.00
2019-03-16T11:51:10.972Z,94603.05
2019-03-16T11:53:38.531Z,94600.46
2019-03-16T11:56:17.869Z,94603.04
2019-03-16T11:58:38.318Z,94615.19
2019-03-16T12:01:05.868Z,94609.25
2019-03-16T12:03:33.607Z,94607.75
2019-03-16T12:06:01.178Z,94599.78
2019-03-16T12:08:28.879Z,94609.02
2019-03-16T12:10:56.891Z,94610.42
2019-03-16T12:13:28.914Z,94602.88
2019-03-16T12:15:56.522Z,94601.67
2019-03-16T12:18:24.062Z,94594.03
2019-03-16T12:20:51.562Z,94599.45
2019-03-16T12:23:19.104Z,94610.66
2019-03-16T12:25:46.899Z,94609.95
2019-03-16T12:28:14.374Z,94597.45
2019-03-16T12:30:53.813Z,94592.73
2019-03-16T12:33:21.548Z,94599.78
2019-03-16T12:35:51.255Z,94595.67
2019-03-16T12:38:19.733Z,94593.33
2019-03-16T12:40:47.334Z,94601.70
2019-03-16T12:43:16.540Z,94598.48
2019-03-16T12:45:44.212Z,94600.05
2019-03-16T12:48:12.725Z,94606.51
2019-03-16T12:50:40.339Z,94605.91
2019-03-16T12:53:10.108Z,94607.44
2019-03-16T12:55:37.718Z,94606.13
2019-03-16T12:58:06.145Z,94604.74
2019-03-16T13:00:35.502Z,94609.84
2019-03-16T13:03:02.995Z,94611.56
2019-03-16T13:05:30.548Z,94608.51
2019-03-16T13:07:58.020Z,94610.42
2019-03-16T13:10:25.612Z,94614.52
2019-03-16T13:12:53.539Z,94621.28
2019-03-16T13:15:21.103Z,94616.87
2019-03-16T13:17:48.522Z,94616.02
2019-03-16T13:20:16.863Z,94606.44
2019-03-16T13:22:45.029Z,94616.06
2019-03-16T13:25:13.658Z,94614.13
2019-03-16T13:27:41.397Z,94624.15
2019-03-16T13:30:10.842Z,94616.16
2019-03-16T13:32:39.240Z,94628.29
2019-03-16T13:35:07.684Z,94636.60
2019-03-16T13:37:36.927Z,94632.54
2019-03-16T13:40:05.388Z,94634.08
2019-03-16T13:42:33.579Z,94633.47
2019-03-16T13:45:01.150Z,94642.13
2019-03-16T13:47:28.735Z,94636.47
2019-03-16T13:49:56.701Z,94642.66
2019-03-16T13:52:24.210Z,94645.41
2019-03-16T13:54:51.753Z,94640.33
2019-03-16T13:57:19.454Z,94643.25
2019-03-16T13:59:46.991Z,94631.99
2019-03-16T14:02:14.468Z,94636.08
2019-03-16T14:04:42.454Z,94636.29
2019-03-16T14:07:09.988Z,94623.96
2019-03-16T14:09:37.489Z,94630.98
2019-03-16T14:12:05.407Z,94627.36
2019-03-16T14:14:32.876Z,94628.59
2019-03-16T14:17:00.275Z,94638.11
2019-03-16T14:19:27.744Z,94636.48
2019-03-16T14:21:55.488Z,94628.58
2019-03-16T14:24:23.412Z,94634.35
2019-03-16T14:26:51.307Z,94644.00
2019-03-16T14:29:18.815Z,94651.42
2019-03-16T14:31:46.292Z,94645.90
2019-03-16T14:34:13.777Z,94638.47
2019-03-16T14:36:41.338Z,94639.50
2019-03-16T14:39:08.861Z,94640.50
2019-03-16T14:41:36.455Z,94644.64
2019-03-16T14:44:04.427Z,94642.99
2019-03-16T14:46:33.025Z,94655.72
2019-03-16T14:49:00.522Z,94662.90
2019-03-16T14:51:28.084Z,94655.70
2019-03-16T14:53:56.822Z,94681.08
2019-03-16T14:56:24.324Z,94665.78
2019-03-16T14:58:51.786Z,94664.68
2019-03-16T15:01:19.369Z,94669.11
2019-03-16T15:03:46.906Z,94665.05
2019-03-16T15:06:14.490Z,94663.68
2019-03-16T15:08:41.924Z,94656.73
2019-03-16T15:11:09.481Z,94641.08
2019-03-16T15:13:36.983Z,94660.55
2019-03-16T15:16:04.438Z,94671.11
2019-03-16T15:18:31.981Z,94672.63
2019-03-16T15:20:59.521Z,94661.45
2019-03-16T15:23:27.133Z,94666.37
2019-03-16T15:25:54.784Z,94674.95
2019-03-16T15:28:22.320Z,94668.69
2019-03-16T15:30:51.061Z,94666.37
2019-03-16T15:33:18.746Z,94672.09
2019-03-16T15:35:46.289Z,94670.16
2019-03-16T15:38:13.782Z,94678.31
2019-03-16T15:40:41.228Z,94673.37
2019-03-16T15:43:08.703Z,94673.14
2019-03-16T15:45:36.220Z,94661.33
2019-03-16T15:48:03.921Z,94673.37
2019-03-16T15:50:31.460Z,94669.20
2019-03-16T15:52:59.019Z,94673.06
2019-03-16T15:55:26.619Z,94672.42
2019-03-16T15:58:06.999Z,94676.23
2019-03-16T16:00:23.755Z,94674.58
2019-03-16T16:02:51.285Z,94671.59
2019-03-16T16:05:18.804Z,94679.96
2019-03-16T16:07:46.309Z,94686.95
2019-03-16T16:10:13.879Z,94678.98
2019-03-16T16:12:41.507Z,94693.04
2019-03-16T16:15:09.228Z,94688.62
2019-03-16T16:17:36.606Z,94698.11
2019-03-16T16:20:04.622Z,94701.58
2019-03-16T16:22:33.093Z,94688.60
2019-03-16T16:25:00.673Z,94703.63
2019-03-16T16:27:29.312Z,94695.07
2019-03-16T16:29:56.867Z,94712.55
2019-03-16T16:32:24.363Z,94711.12
2019-03-16T16:34:52.337Z,94723.71
2019-03-16T16:37:19.905Z,94725.80
2019-03-16T16:39:47.605Z,94731.20
2019-03-16T16:42:15.057Z,94723.98
2019-03-16T16:44:42.705Z,94729.35
2019-03-16T16:47:10.223Z,94734.44
2019-03-16T16:49:37.886Z,94744.78
2019-03-16T16:52:06.512Z,94749.86
2019-03-16T16:54:37.591Z,94757.89
2019-03-16T16:57:04.389Z,94756.84
2019-03-16T16:59:37.332Z,94762.05
2019-03-16T17:02:05.403Z,94758.23
2019-03-16T17:04:32.921Z,94755.20
2019-03-16T17:07:00.438Z,94754.48
2019-03-16T17:09:27.893Z,94763.08
2019-03-16T17:11:55.365Z,94756.84
2019-03-16T17:14:22.786Z,94764.08
2019-03-16T17:16:50.351Z,94776.55
2019-03-16T17:19:18.134Z,94773.09
2019-03-16T17:21:45.685Z,94778.61
2019-03-16T17:24:13.174Z,94774.41
2019-03-16T17:26:40.754Z,94784.70
2019-03-16T17:29:08.202Z,94788.78
2019-03-16T17:31:42.185Z,94794.61
2019-03-16T17:34:05.118Z,94794.86
2019-03-16T17:36:32.631Z,94786.17
2019-03-16T17:39:00.067Z,94795.83
2019-03-16T17:41:27.576Z,94795.86
2019-03-16T17:43:55.261Z,94793.72
2019-03-16T17:46:22.759Z,94797.24
2019-03-16T17:48:50.198Z,94797.86
2019-03-16T17:51:17.953Z,94802.63
2019-03-16T17:53:46.969Z,94795.30
2019-03-16T17:56:14.691Z,94801.88
2019-03-16T17:58:42.327Z,94799.03
2019-03-16T18:01:09.843Z,94807.85
2019-03-16T18:03:37.746Z,94811.84
2019-03-16T18:06:06.140Z,94807.12
2019-03-16T18:08:33.623Z,94813.66
2019-03-16T18:11:01.171Z,94803.98
2019-03-16T18:13:28.639Z,94810.43
2019-03-16T18:15:56.176Z,94815.12
2019-03-16T18:18:23.648Z,94820.28
2019-03-16T18:20:51.202Z,94827.02
2019-03-16T18:23:19.103Z,94821.41
2019-03-16T18:25:47.633Z,94842.81
2019-03-16T18:28:15.188Z,94842.27
2019-03-16T18:30:44.502Z,94844.08
2019-03-16T18:33:12.113Z,94849.18
2019-03-16T18:35:39.609Z,94844.61
2019-03-16T18:38:07.034Z,94849.53
2019-03-16T18:40:34.522Z,94838.80
2019-03-16T18:43:02.022Z,94849.07
2019-03-16T18:45:29.480Z,94847.35
2019-03-16T18:47:57.037Z,94857.18
2019-03-16T18:50:25.110Z,94863.05
2019-03-16T18:52:52.730Z,94871.95
2019-03-16T18:55:20.306Z,94862.42
2019-03-16T18:57:47.820Z,94870.12
2019-03-16T19:00:15.456Z,94862.06
2019-03-16T19:02:43.398Z,94871.64
2019-03-16T19:05:11.569Z,94873.54
2019-03-16T19:07:39.514Z,94877.21
2019-03-16T19:10:08.596Z,94879.05
2019-03-16T19:12:36.780Z,94895.98
2019-03-16T19:15:05.593Z,94887.16
2019-03-16T19:17:34.128Z,94882.92
2019-03-16T19:20:02.367Z,94883.69
2019-03-16T19:22:29.948Z,94887.14
2019-03-16T19:24:57.361Z,94894.71
2019-03-16T19:27:25.181Z,94900.28
2019-03-16T19:29:53.073Z,94901.37
2019-03-16T19:32:32.996Z,94899.41
2019-03-16T19:34:51.443Z,94902.37
2019-03-16T19:37:21.250Z,94890.42
2019-03-16T19:39:50.120Z,94894.28
2019-03-16T19:42:18.469Z,94893.54
2019-03-16T19:44:46.707Z,94891.77
2019-03-16T19:47:14.379Z,94878.17
2019-03-16T19:49:41.958Z,94880.55
2019-03-16T19:52:09.433Z,94884.98
2019-03-16T19:54:37.051Z,94891.77
2019-03-16T19:57:15.286Z,94903.05
2019-03-16T19:59:34.016Z,94898.20
2019-03-16T20:02:01.460Z,94905.08
2019-03-16T20:04:35.973Z,94909.50
2019-03-16T20:06:58.369Z,94915.08
2019-03-16T20:09:25.811Z,94921.23
2019-03-16T20:11:53.215Z,94928.84
2019-03-16T20:14:20.667Z,94927.39
2019-03-16T20:16:48.159Z,94932.23
2019-03-16T20:19:15.548Z,94928.42
2019-03-16T20:21:43.294Z,94939.37
2019-03-16T20:24:10.827Z,94942.05
2019-03-16T20:26:38.342Z,94947.25
2019-03-16T20:29:07.886Z,94945.06
2019-03-16T20:31:46.448Z,94948.00
2019-03-16T20:34:04.612Z,94942.77
2019-03-16T20:36:32.118Z,94946.89
2019-03-16T20:38:59.501Z,94946.59
2019-03-16T20:41:36.163Z,94949.22
2019-03-16T20:43:56.492Z,94953.41
2019-03-16T20:46:24.043Z,94952.88
2019-03-16T20:48:51.479Z,94946.95
2019-03-16T20:51:19.023Z,94950.95
2019-03-16T20:53:46.573Z,94949.55
2019-03-16T20:56:14.101Z,94950.97
2019-03-16T20:58:41.533Z,94948.17
2019-03-16T21:01:09.056Z,94946.59
2019-03-16T21:03:36.688Z,94952.91
2019-03-16T21:06:04.322Z,94959.02
2019-03-16T21:08:31.850Z,94962.07
2019-03-16T21:10:59.320Z,94965.58
2019-03-16T21:13:26.802Z,94965.45
2019-03-16T21:15:54.231Z,94961.72
2019-03-16T21:18:21.634Z,94961.91
2019-03-16T21:20:49.289Z,94971.73
2019-03-16T21:23:16.815Z,94970.70
2019-03-16T21:25:44.307Z,94971.92
2019-03-16T21:28:11.706Z,94976.91
2019-03-16T21:30:39.722Z,94984.63
2019-03-16T21:33:07.230Z,94987.62
2019-03-16T21:35:34.816Z,94989.73
2019-03-16T21:38:02.438Z,94989.00
2019-03-16T21:40:29.920Z,94983.88
2019-03-16T21:42:57.403Z,94986.59
2019-03-16T21:45:25.126Z,94986.14
2019-03-16T21:47:59.869Z,94985.55
2019-03-16T21:50:22.040Z,94984.34
2019-03-16T21:52:50.057Z,94991.69
2019-03-16T21:55:17.612Z,94991.35
2019-03-16T21:57:45.065Z,94990.56
2019-03-16T22:00:13.038Z,94994.26
2019-03-16T22:02:40.574Z,94999.03
2019-03-16T22:05:08.497Z,94998.42
2019-03-16T22:07:36.065Z,94988.64
2019-03-16T22:10:05.615Z,95001.56
2019-03-16T22:12:33.083Z,94994.05
2019-03-16T22:15:00.793Z,94995.05
2019-03-16T22:17:28.244Z,94995.78
2019-03-16T22:19:55.709Z,95008.50
2019-03-16T22:22:23.193Z,95008.04
2019-03-16T22:24:50.662Z,95005.27
2019-03-16T22:27:18.160Z,95004.91
2019-03-16T22:29:45.678Z,95014.33
2019-03-16T22:32:13.136Z,95011.18
2019-03-16T22:34:40.626Z,95008.83
2019-03-16T22:37:08.140Z,95011.12
2019-03-16T22:39:35.588Z,95004.66
2019-03-16T22:42:03.192Z,95010.77
2019-03-16T22:44:33.138Z,95002.39
2019-03-16T22:47:00.562Z,95011.77
2019-03-16T22:49:27.978Z,95008.45
2019-03-16T22:51:56.645Z,95004.33
2019-03-16T22:54:24.385Z,94994.05
2019-03-16T22:56:51.823Z,94993.44
2019-03-16T22:59:19.320Z,94998.23
2019-03-16T23:01:46.801Z,94991.70
2019-03-16T23:04:14.264Z,94996.81
2019-03-16T23:06:41.726Z,94996.69
2019-03-16T23:09:09.234Z,94995.77
2019-03-16T23:11:36.715Z,94991.73
2019-03-16T23:14:04.310Z,94988.98
2019-03-16T23:16:31.820Z,95002.24
2019-03-16T23:18:59.277Z,94998.25
2019-03-16T23:21:26.749Z,94997.60
2019-03-16T23:23:54.187Z,94993.80
2019-03-16T23:26:21.667Z,94998.99
2019-03-16T23:28:49.179Z,94993.53
2019-03-16T23:31:16.683Z,95000.13
2019-03-16T23:33:44.160Z,94993.13
2019-03-16T23:36:11.645Z,94997.51
2019-03-16T23:38:39.121Z,95001.41
2019-03-16T23:41:06.557Z,95011.34
2019-03-16T23:43:34.035Z,95003.05
2019-03-16T23:46:01.583Z,94999.88
2019-03-16T23:48:28.999Z,95003.66
2019-03-16T23:50:56.456Z,95002.72
2019-03-16T23:53:23.951Z,95004.83
2019-03-16T23:55:51.679Z,95007.64
2019-03-16T23:58:19.198Z,95009.91
